createdAt,value
2023-01-30T00:05:36.824Z,1.10
2023-01-30T00:11:38.697Z,1.19
2023-01-30T00:17:40.568Z,1.33
2023-01-30T00:23:43.104Z,1.27
2023-01-30T00:29:57.586Z,1.20
2023-01-30T00:36:03.786Z,1.10
2023-01-30T00:42:24.661Z,1.11
2023-01-30T00:48:26.955Z,1.35
2023-01-30T00:54:28.901Z,1.29
2023-01-30T01:00:31.297Z,1.22
2023-01-30T01:06:33.253Z,1.41
2023-01-30T01:12:35.139Z,1.56
2023-01-30T01:18:37.123Z,1.38
2023-01-30T01:24:39.149Z,1.43
2023-01-30T01:30:41.025Z,1.33
2023-01-30T01:36:53.255Z,1.51
2023-01-30T01:42:55.998Z,1.47
2023-01-30T01:49:03.040Z,1.43
2023-01-30T01:55:07.553Z,1.58
2023-01-30T02:01:09.735Z,1.62
2023-01-30T02:07:11.746Z,1.50
2023-01-30T02:13:13.668Z,1.64
2023-01-30T02:19:54.373Z,1.55
2023-01-30T02:26:28.664Z,1.63
2023-01-30T02:32:44.829Z,1.63
2023-01-30T02:38:59.809Z,1.60
2023-01-30T02:45:15.752Z,1.60
2023-01-30T02:51:29.940Z,1.58
2023-01-30T02:57:31.819Z,1.71
2023-01-30T03:04:27.518Z,1.47
2023-01-30T03:11:01.199Z,1.30
2023-01-30T03:17:06.479Z,1.08
2023-01-30T03:23:08.774Z,1.05
2023-01-30T03:29:10.719Z,1.09
2023-01-30T03:35:13.033Z,1.09
2023-01-30T03:41:15.307Z,1.09
2023-01-30T03:47:17.224Z,1.19
2023-01-30T03:53:19.157Z,1.21
2023-01-30T03:59:21.090Z,1.30
2023-01-30T04:05:23.755Z,1.20
2023-01-30T04:11:25.689Z,1.26
2023-01-30T04:17:27.561Z,1.10
2023-01-30T04:23:29.478Z,1.30
2023-01-30T04:29:31.365Z,1.34
2023-01-30T04:35:33.235Z,1.38
2023-01-30T04:41:35.167Z,1.29
2023-01-30T04:47:37.073Z,1.58
2023-01-30T04:53:39.070Z,1.54
2023-01-30T04:59:41.032Z,1.53
2023-01-30T05:05:45.891Z,1.47
2023-01-30T05:11:47.761Z,1.62
2023-01-30T05:17:49.621Z,1.61
2023-01-30T05:23:53.295Z,1.76
2023-01-30T05:29:55.172Z,1.74
2023-01-30T05:35:57.117Z,1.88
2023-01-30T05:41:59.107Z,1.79
2023-01-30T05:48:01.696Z,1.88
2023-01-30T05:54:03.860Z,1.97
2023-01-30T06:00:06.874Z,2.02
2023-01-30T06:06:10.179Z,1.96
2023-01-30T06:12:12.115Z,2.01
2023-01-30T06:18:14.002Z,1.98
2023-01-30T06:24:15.999Z,2.00
2023-01-30T06:30:18.264Z,1.99
2023-01-30T06:36:20.178Z,2.33
2023-01-30T06:42:22.064Z,2.30
2023-01-30T06:48:23.948Z,2.50
2023-01-30T06:54:25.855Z,2.63
2023-01-30T07:00:27.740Z,2.62
2023-01-30T07:06:29.640Z,2.57
2023-01-30T07:12:31.585Z,2.65
2023-01-30T07:18:33.458Z,2.64
2023-01-30T07:24:35.379Z,2.89
2023-01-30T07:30:37.362Z,2.72
2023-01-30T07:36:39.337Z,2.79
2023-01-30T07:42:41.636Z,2.93
2023-01-30T07:48:45.393Z,3.01
2023-01-30T07:54:47.308Z,3.13
2023-01-30T08:00:49.221Z,3.40
2023-01-30T08:06:51.409Z,3.72
2023-01-30T08:12:53.311Z,3.93
2023-01-30T08:18:55.294Z,4.01
2023-01-30T08:24:57.201Z,4.24
2023-01-30T08:30:59.203Z,4.12
2023-01-30T08:37:01.341Z,4.02
2023-01-30T08:43:04.126Z,4.03
2023-01-30T08:49:06.286Z,4.44
2023-01-30T08:55:09.540Z,4.67
2023-01-30T09:01:11.880Z,4.89
2023-01-30T09:07:13.809Z,5.14
2023-01-30T09:13:15.749Z,5.21
2023-01-30T09:19:17.633Z,5.35
2023-01-30T09:25:19.545Z,5.33
2023-01-30T09:31:21.537Z,5.53
2023-01-30T09:37:23.530Z,5.67
2023-01-30T09:43:51.228Z,5.70
2023-01-30T09:50:23.698Z,5.63
2023-01-30T09:56:26.197Z,5.65
2023-01-30T10:02:39.364Z,5.75
2023-01-30T10:09:07.221Z,5.91
2023-01-30T10:15:23.069Z,5.88
2023-01-30T10:21:43.418Z,5.12
2023-01-30T10:27:57.175Z,4.25
2023-01-30T10:34:09.435Z,4.06
2023-01-30T10:40:42.749Z,4.24
2023-01-30T10:47:03.405Z,4.47
2023-01-30T10:54:02.201Z,4.83
2023-01-30T11:00:16.849Z,4.95
2023-01-30T11:06:29.339Z,4.77
2023-01-30T11:12:31.466Z,4.45
2023-01-30T11:25:20.386Z,3.16
2023-01-30T11:31:40.454Z,3.50
2023-01-30T11:37:45.027Z,3.86
2023-01-30T11:43:48.325Z,4.70
2023-01-30T11:50:00.262Z,4.94
2023-01-30T11:56:23.068Z,5.34
2023-01-30T12:02:34.327Z,4.94
2023-01-30T12:08:43.037Z,4.71
2023-01-30T12:14:49.386Z,4.68
2023-01-30T12:21:01.054Z,4.50
2023-01-30T12:27:25.478Z,4.89
2023-01-30T12:33:33.289Z,5.41
2023-01-30T12:39:59.743Z,5.68
2023-01-30T12:46:12.856Z,5.69
2023-01-30T12:52:56.306Z,5.55
2023-01-30T12:59:52.806Z,5.58
2023-01-30T13:06:39.831Z,5.43
2023-01-30T13:13:42.339Z,5.36
2023-01-30T13:20:05.371Z,5.43
2023-01-30T13:26:42.440Z,5.17
2023-01-30T13:33:05.461Z,5.27
2023-01-30T13:39:42.581Z,5.00
2023-01-30T13:45:47.199Z,4.74
2023-01-30T13:51:54.229Z,5.09
2023-01-30T13:58:10.459Z,5.65
2023-01-30T14:04:40.184Z,5.59
2023-01-30T14:10:42.146Z,5.28
2023-01-30T14:16:51.385Z,5.16
2023-01-30T14:23:00.502Z,5.13
2023-01-30T14:29:02.396Z,5.21
2023-01-30T14:35:04.259Z,5.04
2023-01-30T14:41:06.860Z,5.23
2023-01-30T14:47:34.572Z,5.35
2023-01-30T14:53:55.325Z,5.24
2023-01-30T15:00:18.401Z,5.22
2023-01-30T15:06:21.155Z,5.24
2023-01-30T15:12:50.752Z,5.28
2023-01-30T15:19:40.725Z,5.26
2023-01-30T15:26:14.280Z,5.42
2023-01-30T15:32:23.076Z,5.45
2023-01-30T15:38:27.021Z,5.50
2023-01-30T15:45:02.887Z,5.51
2023-01-30T15:51:05.170Z,5.58
2023-01-30T15:57:11.818Z,5.52
2023-01-30T16:03:35.242Z,5.56
2023-01-30T16:09:37.133Z,5.17
2023-01-30T16:15:48.451Z,5.11
2023-01-30T16:21:50.411Z,5.20
2023-01-30T16:27:53.682Z,5.15
2023-01-30T16:33:55.591Z,5.13
2023-01-30T16:40:31.869Z,5.12
2023-01-30T16:46:47.366Z,5.17
2023-01-30T16:52:54.835Z,5.18
2023-01-30T16:59:00.459Z,5.17
2023-01-30T17:05:21.828Z,5.26
2023-01-30T17:11:41.554Z,5.06
2023-01-30T17:17:44.581Z,5.09
2023-01-30T17:24:05.274Z,5.07
2023-01-30T17:30:18.739Z,4.94
2023-01-30T17:36:30.101Z,4.91
2023-01-30T17:42:31.989Z,4.95
2023-01-30T17:48:33.866Z,4.90
2023-01-30T17:54:35.799Z,4.91
2023-01-30T18:00:37.701Z,4.86
2023-01-30T18:06:43.122Z,4.98
2023-01-30T18:12:47.916Z,4.94
2023-01-30T18:18:50.310Z,5.06
2023-01-30T18:24:52.213Z,5.11
2023-01-30T18:30:54.149Z,5.23
2023-01-30T18:36:56.069Z,5.26
2023-01-30T18:42:58.133Z,5.46
2023-01-30T18:49:00.247Z,5.43
2023-01-30T18:55:02.251Z,5.56
2023-01-30T19:01:17.899Z,5.52
2023-01-30T19:07:19.846Z,5.48
2023-01-30T19:13:33.949Z,5.27
2023-01-30T19:19:37.081Z,4.97
2023-01-30T19:25:38.981Z,4.84
2023-01-30T19:31:41.692Z,4.82
2023-01-30T19:37:43.702Z,4.74
2023-01-30T19:43:46.161Z,4.76
2023-01-30T19:49:48.288Z,4.88
2023-01-30T19:55:51.625Z,4.72
2023-01-30T20:01:53.621Z,4.61
2023-01-30T20:07:55.594Z,4.56
2023-01-30T20:13:58.787Z,4.60
2023-01-30T20:20:09.696Z,4.57
2023-01-30T20:26:19.661Z,4.50
2023-01-30T20:32:21.680Z,4.54
2023-01-30T20:38:23.569Z,4.60
2023-01-30T20:44:25.863Z,4.75
2023-01-30T20:50:28.277Z,4.80
2023-01-30T20:56:45.888Z,4.77
2023-01-30T21:02:51.620Z,5.01
2023-01-30T21:08:53.565Z,5.01
2023-01-30T21:14:55.451Z,4.95
2023-01-30T21:20:57.477Z,4.73
2023-01-30T21:26:59.405Z,4.50
2023-01-30T21:33:01.298Z,4.45
2023-01-30T21:39:22.660Z,4.42
2023-01-30T21:45:24.678Z,4.43
2023-01-30T21:51:26.624Z,4.43
2023-01-30T21:57:28.560Z,4.45
2023-01-30T22:03:30.572Z,4.29
2023-01-30T22:09:32.466Z,4.35
2023-01-30T22:15:34.432Z,4.33
2023-01-30T22:21:40.130Z,4.33
2023-01-30T22:27:42.203Z,4.38
2023-01-30T22:33:51.164Z,4.43
2023-01-30T22:39:53.036Z,4.42
2023-01-30T22:46:04.000Z,4.50
2023-01-30T22:52:05.910Z,4.54
2023-01-30T22:58:07.777Z,4.48
2023-01-30T23:04:22.418Z,4.37
2023-01-30T23:10:24.373Z,4.36
2023-01-30T23:16:28.112Z,4.38
2023-01-30T23:22:30.077Z,4.27
2023-01-30T23:28:32.385Z,4.28
2023-01-30T23:34:34.376Z,4.20
2023-01-30T23:40:36.523Z,4.01
2023-01-30T23:46:42.060Z,3.73
2023-01-30T23:52:44.602Z,3.85
2023-01-30T23:58:47.124Z,3.77
